createdAt,value
2015-03-22T10:35:31.102Z,19
2015-03-22T10:35:44.368Z,19
2015-03-22T10:35:57.774Z,19
2015-03-22T10:36:10.977Z,19
2015-03-22T10:36:24.305Z,19
2015-03-22T10:36:38.354Z,19
2015-03-22T10:36:56.088Z,19
2015-03-22T10:37:09.338Z,19
2015-03-22T10:37:23.932Z,19
2015-03-22T10:37:39.169Z,19
2015-03-22T10:37:52.513Z,19
2015-03-22T10:38:14.091Z,19
2015-03-22T10:38:39.296Z,19
2015-03-22T10:39:01.109Z,19
2015-03-22T10:39:15.781Z,19
2015-03-22T10:39:29.861Z,19
2015-03-22T10:39:43.189Z,19
2015-03-22T10:39:56.298Z,19
2015-03-22T10:40:09.470Z,19
2015-03-22T10:40:22.752Z,19
2015-03-22T10:40:35.880Z,19
2015-03-22T10:40:49.005Z,19
2015-03-22T10:41:02.380Z,19
2015-03-22T10:41:15.583Z,19
2015-03-22T10:41:28.661Z,19
2015-03-22T10:41:42.007Z,19
2015-03-22T10:41:55.475Z,19
2015-03-22T10:42:09.694Z,19
2015-03-22T10:42:23.085Z,19
2015-03-22T10:42:36.244Z,19
2015-03-22T10:42:49.556Z,19
2015-03-22T10:43:04.291Z,19
2015-03-22T10:43:17.353Z,19
2015-03-22T10:43:31.402Z,19
2015-03-22T10:43:45.762Z,19
2015-03-22T10:43:59.543Z,19
2015-03-22T10:44:13.058Z,19
2015-03-22T10:44:27.152Z,19
2015-03-22T10:44:40.529Z,19
2015-03-22T10:44:54.357Z,19
2015-03-22T10:45:07.654Z,19
2015-03-22T10:45:21.076Z,19
2015-03-22T10:45:34.469Z,19
2015-03-22T10:45:47.500Z,19
2015-03-22T10:46:00.812Z,19
2015-03-22T10:46:14.156Z,19
2015-03-22T10:46:27.203Z,19
2015-03-22T10:46:40.439Z,19
2015-03-22T10:46:53.830Z,19
2015-03-22T10:47:07.549Z,19
2015-03-22T10:47:21.314Z,19
2015-03-22T10:47:34.817Z,19
2015-03-22T10:47:48.208Z,19
2015-03-22T10:48:01.489Z,19
2015-03-22T10:48:14.630Z,19
2015-03-22T10:48:27.911Z,19
2015-03-22T10:48:41.976Z,19
2015-03-22T10:48:55.179Z,19
2015-03-22T10:49:15.585Z,19
2015-03-22T10:49:35.715Z,19
2015-03-22T10:50:03.434Z,19
2015-03-22T10:50:23.278Z,19
2015-03-22T10:50:43.651Z,19
2015-03-22T10:51:03.151Z,19
2015-03-22T10:51:23.260Z,19
2015-03-22T10:51:42.823Z,19
2015-03-22T10:52:09.354Z,19
2015-03-22T10:52:28.417Z,19
2015-03-22T10:52:46.243Z,19
2015-03-22T10:53:03.884Z,19
2015-03-22T10:53:22.947Z,19
2015-03-22T10:53:41.648Z,19
2015-03-22T10:53:59.914Z,19
2015-03-22T10:54:18.617Z,19
2015-03-22T10:54:36.005Z,19
2015-03-22T10:54:49.458Z,19
2015-03-22T10:55:02.739Z,19
2015-03-22T10:55:15.911Z,19
2015-03-22T10:55:29.317Z,19
2015-03-22T10:55:42.466Z,19
2015-03-22T10:55:55.794Z,19
2015-03-22T10:56:08.982Z,19
2015-03-22T10:56:22.278Z,19
2015-03-22T10:56:35.816Z,19
2015-03-22T10:56:49.066Z,19
2015-03-22T10:57:02.206Z,19
2015-03-22T10:57:15.769Z,19
2015-03-22T10:57:29.113Z,19
2015-03-22T10:57:42.230Z,19
2015-03-22T10:57:55.667Z,19
2015-03-22T10:58:09.199Z,19
2015-03-22T10:58:22.402Z,19
2015-03-22T10:58:35.642Z,19
2015-03-22T10:58:48.783Z,19
2015-03-22T10:59:02.158Z,19
2015-03-22T10:59:15.486Z,19
2015-03-22T10:59:28.611Z,19
2015-03-22T10:59:42.054Z,19
2015-03-22T10:59:55.539Z,19
2015-03-22T11:00:08.664Z,19
2015-03-22T11:00:21.992Z,19
2015-03-22T11:00:35.461Z,19
2015-03-22T11:00:48.591Z,20
2015-03-22T11:01:01.888Z,20
2015-03-22T11:01:15.169Z,20
2015-03-22T11:01:28.481Z,20
2015-03-22T11:01:41.812Z,20
2015-03-22T11:01:55.016Z,20
2015-03-22T11:02:08.328Z,20
2015-03-22T11:02:21.719Z,20
2015-03-22T11:02:34.953Z,20
2015-03-22T11:02:48.254Z,20
2015-03-22T11:03:01.676Z,20
2015-03-22T11:03:14.941Z,20
2015-03-22T11:03:28.207Z,20
2015-03-22T11:03:41.617Z,20
2015-03-22T11:03:54.945Z,20
2015-03-22T11:04:15.477Z,20
2015-03-22T11:04:28.680Z,20
2015-03-22T11:04:49.105Z,20
2015-03-22T11:05:02.495Z,20
2015-03-22T11:05:15.652Z,20
2015-03-22T11:05:28.870Z,20
2015-03-22T11:05:42.296Z,20
2015-03-22T11:05:55.468Z,19
2015-03-22T11:06:08.624Z,19
2015-03-22T11:06:21.999Z,19
2015-03-22T11:06:35.374Z,19
2015-03-22T11:06:48.471Z,19
2015-03-22T11:07:01.987Z,19
2015-03-22T11:07:15.127Z,19
2015-03-22T11:07:28.502Z,19
2015-03-22T11:07:41.740Z,19
2015-03-22T11:07:54.943Z,19
2015-03-22T11:08:08.474Z,19
2015-03-22T11:08:21.771Z,19
2015-03-22T11:08:35.537Z,19
2015-03-22T11:08:48.883Z,19
2015-03-22T11:09:02.274Z,19
2015-03-22T11:09:15.430Z,19
2015-03-22T11:09:28.915Z,20
2015-03-22T11:09:42.308Z,20
2015-03-22T11:09:55.511Z,20
2015-03-22T11:10:08.855Z,20
2015-03-22T11:10:21.949Z,20
2015-03-22T11:10:35.246Z,20
2015-03-22T11:10:48.591Z,20
2015-03-22T11:11:01.841Z,20
2015-03-22T11:11:15.138Z,20
2015-03-22T11:11:28.482Z,20
2015-03-22T11:11:41.626Z,20
2015-03-22T11:11:54.891Z,20
2015-03-22T11:12:08.329Z,20
2015-03-22T11:12:21.563Z,20
2015-03-22T11:12:34.704Z,20
2015-03-22T11:12:48.050Z,20
2015-03-22T11:13:01.300Z,20
2015-03-22T11:13:14.768Z,20
2015-03-22T11:13:28.034Z,20
2015-03-22T11:13:41.364Z,20
2015-03-22T11:13:54.833Z,20
2015-03-22T11:14:08.020Z,20
2015-03-22T11:14:21.192Z,20
2015-03-22T11:14:34.552Z,20
2015-03-22T11:14:47.819Z,20
2015-03-22T11:15:01.007Z,20
2015-03-22T11:15:14.538Z,20
2015-03-22T11:15:27.897Z,20
2015-03-22T11:15:41.041Z,20
2015-03-22T11:15:54.432Z,20
2015-03-22T11:16:07.838Z,20
2015-03-22T11:16:21.525Z,20
2015-03-22T11:16:34.932Z,20
2015-03-22T11:17:15.527Z,20
2015-03-22T11:18:03.170Z,20
2015-03-22T11:18:48.220Z,20
2015-03-22T11:19:52.566Z,20
2015-03-22T11:20:05.706Z,20
2015-03-22T11:20:18.956Z,20
2015-03-22T11:20:32.441Z,20
2015-03-22T11:20:45.739Z,20
2015-03-22T11:20:59.114Z,20
2015-03-22T11:21:12.161Z,20
2015-03-22T11:21:25.427Z,20
2015-03-22T11:21:38.880Z,20
2015-03-22T11:21:52.101Z,20
2015-03-22T11:22:05.320Z,20
2015-03-22T11:22:18.757Z,20
2015-03-22T11:22:31.960Z,20
2015-03-22T11:22:44.979Z,20
2015-03-22T11:23:05.604Z,20
2015-03-22T11:23:19.026Z,20
2015-03-22T11:23:32.151Z,20
2015-03-22T11:23:45.544Z,20
2015-03-22T11:24:05.872Z,20
2015-03-22T11:24:19.341Z,20
2015-03-22T11:24:32.591Z,20
2015-03-22T11:24:45.702Z,20
2015-03-22T11:24:59.155Z,20
2015-03-22T11:25:12.467Z,20
2015-03-22T11:25:25.655Z,20
2015-03-22T11:25:39.123Z,20
2015-03-22T11:25:52.580Z,20
2015-03-22T11:26:05.705Z,20
2015-03-22T11:26:19.017Z,20
2015-03-22T11:26:32.470Z,20
2015-03-22T11:26:45.675Z,20
2015-03-22T11:26:58.957Z,20
2015-03-22T11:27:12.019Z,20
2015-03-22T11:27:25.285Z,20
2015-03-22T11:27:38.691Z,20
2015-03-22T11:27:51.819Z,20
2015-03-22T11:28:05.194Z,20
2015-03-22T11:28:18.616Z,20
2015-03-22T11:28:31.788Z,20
2015-03-22T11:28:44.977Z,20
2015-03-22T11:28:58.430Z,20
2015-03-22T11:29:11.665Z,20
2015-03-22T11:29:24.837Z,20
2015-03-22T11:29:38.196Z,20
2015-03-22T11:29:51.479Z,20
2015-03-22T11:30:04.948Z,20
2015-03-22T11:30:18.198Z,20
2015-03-22T11:30:31.495Z,20
2015-03-22T11:30:44.904Z,20
2015-03-22T11:30:58.045Z,20
2015-03-22T11:31:11.138Z,20
2015-03-22T11:31:31.888Z,20
2015-03-22T11:31:44.969Z,20
2015-03-22T11:31:58.172Z,20
2015-03-22T11:32:11.578Z,20
2015-03-22T11:32:24.922Z,20
2015-03-22T11:32:38.234Z,20
2015-03-22T11:32:58.627Z,20
2015-03-22T11:33:19.002Z,20
2015-03-22T11:33:32.471Z,20
2015-03-22T11:33:45.754Z,20
2015-03-22T11:33:59.004Z,20
2015-03-22T11:34:12.457Z,20
2015-03-22T11:34:25.769Z,20
2015-03-22T11:34:38.832Z,20
2015-03-22T11:34:52.226Z,20
2015-03-22T11:35:05.554Z,20
2015-03-22T11:35:18.710Z,20
2015-03-22T11:35:32.038Z,20
2015-03-22T11:35:45.228Z,20
2015-03-22T11:35:58.649Z,20
2015-03-22T11:36:11.946Z,20
2015-03-22T11:36:25.165Z,20
2015-03-22T11:36:38.618Z,20
2015-03-22T11:36:52.043Z,20
2015-03-22T11:37:05.246Z,20
2015-03-22T11:37:18.574Z,20
2015-03-22T11:37:32.027Z,20
2015-03-22T11:37:45.184Z,20
2015-03-22T11:37:58.342Z,20
2015-03-22T11:38:11.811Z,20
2015-03-22T11:38:25.092Z,20
2015-03-22T11:38:38.483Z,20
2015-03-22T11:38:51.750Z,20
2015-03-22T11:39:05.125Z,20
2015-03-22T11:39:18.516Z,20
2015-03-22T11:39:31.688Z,20
2015-03-22T11:39:44.860Z,20
2015-03-22T11:39:58.268Z,20
2015-03-22T11:40:11.362Z,20
2015-03-22T11:40:24.471Z,20
2015-03-22T11:40:37.877Z,19
2015-03-22T11:40:51.160Z,19
2015-03-22T11:41:04.285Z,19
2015-03-22T11:41:17.754Z,19
2015-03-22T11:41:31.051Z,19
2015-03-22T11:41:44.254Z,19
2015-03-22T11:41:57.617Z,19
2015-03-22T11:42:11.101Z,19
2015-03-22T11:42:24.226Z,19
2015-03-22T11:42:37.507Z,19
2015-03-22T11:42:50.822Z,19
2015-03-22T11:43:03.947Z,19
2015-03-22T11:43:17.197Z,19
2015-03-22T11:43:30.525Z,19
2015-03-22T11:43:43.587Z,19
2015-03-22T11:43:56.792Z,19
2015-03-22T11:44:10.011Z,19
2015-03-22T11:44:23.183Z,19
2015-03-22T11:44:36.542Z,19
2015-03-22T11:44:49.639Z,19
2015-03-22T11:45:02.842Z,19
2015-03-22T11:45:16.186Z,19
2015-03-22T11:45:29.420Z,19
2015-03-22T11:45:42.530Z,19
2015-03-22T11:45:55.954Z,19
2015-03-22T11:46:09.204Z,19
2015-03-22T11:46:22.360Z,19
2015-03-22T11:46:35.735Z,19
2015-03-22T11:46:49.063Z,19
2015-03-22T11:47:02.425Z,19
2015-03-22T11:47:15.722Z,19
2015-03-22T11:47:28.925Z,19
2015-03-22T11:47:42.410Z,19
2015-03-22T11:47:55.724Z,19
2015-03-22T11:48:09.943Z,19
2015-03-22T11:48:23.459Z,19
2015-03-22T11:48:37.881Z,19
2015-03-22T11:48:51.101Z,19
2015-03-22T11:49:06.789Z,19
2015-03-22T11:49:22.570Z,19
2015-03-22T11:49:35.758Z,19
2015-03-22T11:49:49.054Z,19
2015-03-22T11:50:02.307Z,19
2015-03-22T11:50:17.448Z,19
2015-03-22T11:50:30.839Z,19
2015-03-22T11:50:43.932Z,19
2015-03-22T11:50:57.247Z,19
2015-03-22T11:51:11.591Z,19
2015-03-22T11:51:24.856Z,20
2015-03-22T11:51:38.872Z,20
2015-03-22T11:51:52.327Z,20
2015-03-22T11:52:05.436Z,20
2015-03-22T11:52:18.827Z,20
2015-03-22T11:52:32.265Z,20
2015-03-22T11:52:45.515Z,20
2015-03-22T11:52:58.829Z,20
2015-03-22T11:53:11.767Z,20
2015-03-22T11:53:25.157Z,20
2015-03-22T11:53:38.548Z,20
2015-03-22T11:53:51.704Z,20
2015-03-22T11:54:04.973Z,20
2015-03-22T11:54:18.473Z,20
2015-03-22T11:54:31.707Z,20
2015-03-22T11:54:44.863Z,20
2015-03-22T11:54:58.350Z,20
2015-03-22T11:55:11.647Z,20
2015-03-22T11:55:24.818Z,20
2015-03-22T11:55:38.115Z,20
2015-03-22T11:55:51.334Z,20
2015-03-22T11:56:04.884Z,20
2015-03-22T11:56:18.165Z,20
2015-03-22T11:56:35.587Z,20
2015-03-22T11:56:49.009Z,20
2015-03-22T11:57:02.230Z,20
2015-03-22T11:57:15.370Z,20
2015-03-22T11:57:28.730Z,20
2015-03-22T11:57:41.995Z,20
2015-03-22T11:57:55.152Z,20
2015-03-22T11:58:08.529Z,20
2015-03-22T11:58:27.732Z,20
2015-03-22T11:58:41.013Z,20
2015-03-22T11:58:54.232Z,20
2015-03-22T11:59:07.249Z,20
2015-03-22T11:59:20.609Z,20
2015-03-22T11:59:33.921Z,20
2015-03-22T11:59:46.984Z,20
2015-03-22T12:00:00.284Z,20
2015-03-22T12:00:13.705Z,20
2015-03-22T12:00:26.877Z,20
2015-03-22T12:00:40.268Z,20
2015-03-22T12:00:53.643Z,20
2015-03-22T12:01:06.707Z,20
2015-03-22T12:01:19.926Z,20
2015-03-22T12:01:33.082Z,20
2015-03-22T12:01:46.411Z,20
2015-03-22T12:01:59.709Z,20
2015-03-22T12:02:12.741Z,20
2015-03-22T12:02:26.038Z,20
2015-03-22T12:02:39.397Z,20
2015-03-22T12:02:52.506Z,20
2015-03-22T12:03:06.228Z,20
2015-03-22T12:03:19.650Z,20
2015-03-22T12:03:32.806Z,20
2015-03-22T12:03:45.962Z,20
2015-03-22T12:03:59.293Z,20
2015-03-22T12:04:12.511Z,20
2015-03-22T12:04:25.527Z,20
2015-03-22T12:04:38.918Z,20
2015-03-22T12:04:52.230Z,20
2015-03-22T12:05:05.357Z,20
2015-03-22T12:05:18.638Z,20
2015-03-22T12:05:31.966Z,20
2015-03-22T12:05:45.076Z,20
2015-03-22T12:05:58.359Z,20
2015-03-22T12:06:11.687Z,20
2015-03-22T12:06:24.797Z,20
2015-03-22T12:06:45.250Z,20
2015-03-22T12:06:58.675Z,20
2015-03-22T12:07:11.784Z,20
2015-03-22T12:07:25.112Z,20
2015-03-22T12:07:38.221Z,20
2015-03-22T12:07:51.534Z,20
2015-03-22T12:08:04.911Z,20
2015-03-22T12:08:17.942Z,20
2015-03-22T12:08:32.161Z,20
2015-03-22T12:08:45.536Z,20
2015-03-22T12:08:58.695Z,20
2015-03-22T12:09:11.945Z,20
2015-03-22T12:09:25.383Z,20
2015-03-22T12:09:38.836Z,20
2015-03-22T12:09:52.070Z,20
2015-03-22T12:10:05.338Z,20
2015-03-22T12:10:18.572Z,20
2015-03-22T12:10:32.010Z,20
2015-03-22T12:10:45.072Z,20
2015-03-22T12:10:58.307Z,20
2015-03-22T12:11:11.590Z,20
2015-03-22T12:11:24.809Z,20
2015-03-22T12:11:38.059Z,20
2015-03-22T12:11:51.340Z,20
2015-03-22T12:12:04.671Z,20
2015-03-22T12:12:17.858Z,20
2015-03-22T12:12:31.187Z,20
2015-03-22T12:12:44.515Z,20
2015-03-22T12:12:57.843Z,20
2015-03-22T12:13:11.157Z,20
2015-03-22T12:13:24.251Z,20
2015-03-22T12:13:37.657Z,20
2015-03-22T12:13:50.939Z,20
2015-03-22T12:14:04.098Z,20
2015-03-22T12:14:17.520Z,20
2015-03-22T12:14:30.942Z,20
2015-03-22T12:14:44.113Z,20
2015-03-22T12:14:57.395Z,20
2015-03-22T12:15:10.725Z,20
2015-03-22T12:15:23.834Z,20
2015-03-22T12:15:37.147Z,20
2015-03-22T12:15:50.365Z,20
2015-03-22T12:16:03.632Z,20
2015-03-22T12:16:17.054Z,20
2015-03-22T12:16:30.226Z,20
2015-03-22T12:16:43.429Z,20
2015-03-22T12:16:56.835Z,20
2015-03-22T12:17:10.026Z,20
2015-03-22T12:17:23.276Z,20
2015-03-22T12:17:36.619Z,20
2015-03-22T12:17:49.885Z,19
2015-03-22T12:18:03.076Z,19
2015-03-22T12:18:16.529Z,19
2015-03-22T12:18:29.544Z,19
2015-03-22T12:18:42.607Z,19
2015-03-22T12:18:55.466Z,19
2015-03-22T12:19:08.406Z,19
2015-03-22T12:19:21.499Z,19
2015-03-22T12:19:34.374Z,19
2015-03-22T12:19:47.265Z,19
2015-03-22T12:20:00.374Z,19
2015-03-22T12:20:13.330Z,19
2015-03-22T12:20:26.205Z,19
2015-03-22T12:20:46.486Z,19
2015-03-22T12:20:59.486Z,19
2015-03-22T12:21:12.378Z,19
2015-03-22T12:21:25.425Z,19
2015-03-22T12:21:38.347Z,19
2015-03-22T12:21:51.441Z,20
2015-03-22T12:22:04.396Z,20
2015-03-22T12:22:17.271Z,20
2015-03-22T12:22:30.412Z,20
2015-03-22T12:22:43.427Z,20
2015-03-22T12:22:56.318Z,20
2015-03-22T12:23:09.383Z,20
2015-03-22T12:23:22.493Z,20
2015-03-22T12:23:35.368Z,20
2015-03-22T12:23:48.368Z,20
2015-03-22T12:24:01.477Z,20
2015-03-22T12:24:14.385Z,20
2015-03-22T12:24:27.401Z,20
2015-03-22T12:24:40.260Z,20
2015-03-22T12:24:53.307Z,20
2015-03-22T12:25:06.373Z,20
2015-03-22T12:25:19.232Z,20
2015-03-22T12:25:32.232Z,20
2015-03-22T12:25:45.342Z,20
2015-03-22T12:25:58.217Z,20
2015-03-22T12:26:11.171Z,20
2015-03-22T12:26:24.280Z,20
2015-03-22T12:26:37.218Z,20
2015-03-22T12:26:50.108Z,20
2015-03-22T12:27:03.283Z,20
2015-03-22T12:27:16.267Z,20
2015-03-22T12:27:29.158Z,20
2015-03-22T12:27:42.361Z,20
2015-03-22T12:27:55.361Z,20
2015-03-22T12:28:08.207Z,20
2015-03-22T12:28:21.269Z,20
2015-03-22T12:28:34.348Z,20
2015-03-22T12:28:47.207Z,20
2015-03-22T12:29:00.207Z,20
2015-03-22T12:29:13.366Z,20
2015-03-22T12:29:26.210Z,20
2015-03-22T12:29:39.241Z,20
2015-03-22T12:29:52.210Z,20
2015-03-22T12:30:05.274Z,20
2015-03-22T12:30:18.353Z,20
2015-03-22T12:30:31.212Z,20
2015-03-22T12:30:44.228Z,20
2015-03-22T12:30:57.384Z,20
2015-03-22T12:31:10.277Z,20
2015-03-22T12:31:23.262Z,20
2015-03-22T12:31:36.387Z,20
2015-03-22T12:31:49.293Z,20
2015-03-22T12:32:02.184Z,20
2015-03-22T12:32:15.295Z,20
2015-03-22T12:32:28.264Z,20
2015-03-22T12:32:41.295Z,20
2015-03-22T12:32:54.154Z,20
2015-03-22T12:33:07.031Z,20
2015-03-22T12:33:20.172Z,20
2015-03-22T12:33:33.078Z,20
2015-03-22T12:33:45.985Z,20
2015-03-22T12:33:59.094Z,20
2015-03-22T12:34:12.050Z,20
2015-03-22T12:34:24.894Z,20
2015-03-22T12:34:38.003Z,20
2015-03-22T12:34:51.019Z,20
2015-03-22T12:35:03.927Z,20
2015-03-22T12:35:16.990Z,20
2015-03-22T12:35:29.911Z,20
2015-03-22T12:35:43.021Z,20
2015-03-22T12:35:55.990Z,20
2015-03-22T12:36:08.867Z,20
2015-03-22T12:36:21.960Z,20
2015-03-22T12:36:34.992Z,20
2015-03-22T12:36:47.851Z,20
2015-03-22T12:37:00.913Z,20
2015-03-22T12:37:14.009Z,20
2015-03-22T12:37:26.931Z,20
2015-03-22T12:37:39.931Z,20
2015-03-22T12:37:53.040Z,20
2015-03-22T12:38:05.950Z,20
2015-03-22T12:38:18.934Z,20
2015-03-22T12:38:32.372Z,20
2015-03-22T12:38:45.497Z,20
2015-03-22T12:38:58.559Z,20
2015-03-22T12:39:11.420Z,20
2015-03-22T12:39:24.452Z,20
2015-03-22T12:39:37.592Z,20
2015-03-22T12:39:50.467Z,20
2015-03-22T12:40:03.407Z,20
2015-03-22T12:40:16.516Z,20
2015-03-22T12:40:29.422Z,20
2015-03-22T12:40:42.391Z,20
2015-03-22T12:40:55.407Z,20
2015-03-22T12:41:08.424Z,20
2015-03-22T12:41:21.596Z,20
2015-03-22T12:41:34.440Z,20
2015-03-22T12:41:47.456Z,20
2015-03-22T12:42:00.596Z,20
2015-03-22T12:42:13.567Z,20
2015-03-22T12:42:26.489Z,20
2015-03-22T12:42:39.630Z,20
2015-03-22T12:42:52.614Z,20
2015-03-22T12:43:05.461Z,20
2015-03-22T12:43:18.601Z,20
2015-03-22T12:43:31.633Z,20
2015-03-22T12:43:44.679Z,20
2015-03-22T12:43:57.617Z,20
2015-03-22T12:44:10.542Z,20
2015-03-22T12:44:23.667Z,20
2015-03-22T12:44:36.636Z,20
2015-03-22T12:44:49.526Z,20
2015-03-22T12:45:02.651Z,20
2015-03-22T12:45:15.653Z,20
2015-03-22T12:45:28.575Z,20
2015-03-22T12:45:41.669Z,20
2015-03-22T12:45:54.794Z,20
2015-03-22T12:46:07.640Z,20
2015-03-22T12:46:20.640Z,20
2015-03-22T12:46:33.530Z,20
2015-03-22T12:46:46.671Z,20
2015-03-22T12:46:59.765Z,20
2015-03-22T12:47:12.611Z,20
2015-03-22T12:47:25.736Z,20
2015-03-22T12:47:38.814Z,20
2015-03-22T12:47:51.689Z,20
2015-03-22T12:48:04.753Z,20
2015-03-22T12:48:17.878Z,20
2015-03-22T12:48:30.753Z,20
2015-03-22T12:48:43.784Z,20
2015-03-22T12:48:56.878Z,20
2015-03-22T12:49:10.443Z,20
2015-03-22T12:49:30.600Z,20
2015-03-22T12:49:43.740Z,20
2015-03-22T12:49:57.115Z,20
2015-03-22T12:50:10.117Z,20
2015-03-22T12:50:23.242Z,20
2015-03-22T12:50:36.258Z,20
2015-03-22T12:50:49.117Z,20
2015-03-22T12:51:02.149Z,20
2015-03-22T12:51:15.213Z,20
2015-03-22T12:51:28.088Z,20
2015-03-22T12:51:41.104Z,20
2015-03-22T12:51:54.229Z,20
2015-03-22T12:52:07.169Z,20
2015-03-22T12:52:20.216Z,20
2015-03-22T12:52:33.091Z,20
2015-03-22T12:52:46.185Z,20
2015-03-22T12:52:59.247Z,20
2015-03-22T12:53:12.093Z,20
2015-03-22T12:53:25.109Z,20
2015-03-22T12:53:38.187Z,20
2015-03-22T12:53:51.062Z,20
2015-03-22T12:54:03.984Z,20
2015-03-22T12:54:17.079Z,20
2015-03-22T12:54:30.017Z,20
2015-03-22T12:54:42.923Z,20
2015-03-22T12:54:55.923Z,20
2015-03-22T12:55:08.942Z,20
2015-03-22T12:55:22.036Z,20
2015-03-22T12:55:34.942Z,20
2015-03-22T12:55:47.926Z,19
2015-03-22T12:56:01.036Z,19
2015-03-22T12:56:14.006Z,19
2015-03-22T12:56:26.944Z,19
2015-03-22T12:56:40.084Z,19
2015-03-22T12:56:53.069Z,19
2015-03-22T12:57:05.947Z,19
2015-03-22T12:57:19.087Z,18
2015-03-22T12:57:32.134Z,18
2015-03-22T12:57:45.166Z,18
2015-03-22T12:57:58.072Z,19
2015-03-22T12:58:10.980Z,19
2015-03-22T12:58:24.089Z,19
2015-03-22T12:58:37.043Z,19
2015-03-22T12:58:49.886Z,19
2015-03-22T12:59:03.058Z,19
2015-03-22T12:59:16.060Z,19
2015-03-22T12:59:28.904Z,19
2015-03-22T12:59:41.998Z,19
2015-03-22T12:59:55.076Z,19
2015-03-22T13:00:07.937Z,19
2015-03-22T13:00:20.953Z,19
2015-03-22T13:00:33.968Z,19
2015-03-22T13:00:47.078Z,19
2015-03-22T13:01:00.125Z,19
2015-03-22T13:01:12.987Z,19
2015-03-22T13:01:26.096Z,19
2015-03-22T13:01:39.253Z,19
2015-03-22T13:01:52.206Z,19
2015-03-22T13:02:05.237Z,19
2015-03-22T13:02:19.161Z,19
2015-03-22T13:02:32.020Z,18
2015-03-22T13:02:44.973Z,18
2015-03-22T13:02:58.083Z,18
2015-03-22T13:03:11.008Z,18
2015-03-22T13:03:24.055Z,18
2015-03-22T13:03:36.914Z,18
2015-03-22T13:03:49.914Z,18
2015-03-22T13:04:03.039Z,18
2015-03-22T13:04:23.087Z,18
2015-03-22T13:04:36.071Z,18
2015-03-22T13:04:49.165Z,18
2015-03-22T13:05:02.134Z,19
2015-03-22T13:05:15.074Z,19
2015-03-22T13:05:28.152Z,19
2015-03-22T13:05:41.137Z,19
2015-03-22T13:05:54.012Z,19
2015-03-22T13:06:07.121Z,19
2015-03-22T13:06:20.092Z,19
2015-03-22T13:06:33.264Z,19
2015-03-22T13:06:46.186Z,19
2015-03-22T13:06:59.092Z,19
2015-03-22T13:07:12.220Z,19
2015-03-22T13:07:25.157Z,19
2015-03-22T13:07:38.048Z,19
2015-03-22T13:07:51.189Z,19
2015-03-22T13:08:04.220Z,19
2015-03-22T13:08:17.096Z,19
2015-03-22T13:08:30.674Z,19
2015-03-22T13:08:44.158Z,19
2015-03-22T13:08:57.158Z,19
2015-03-22T13:09:10.224Z,19
2015-03-22T13:09:23.208Z,19
2015-03-22T13:09:36.318Z,20
2015-03-22T13:09:49.349Z,20
2015-03-22T13:10:02.255Z,20
2015-03-22T13:10:15.366Z,20
2015-03-22T13:10:28.476Z,20
2015-03-22T13:10:41.398Z,20
2015-03-22T13:10:54.445Z,20
2015-03-22T13:11:14.743Z,20
2015-03-22T13:11:27.618Z,20
2015-03-22T13:11:40.587Z,20
2015-03-22T13:11:53.728Z,20
2015-03-22T13:12:06.681Z,20
2015-03-22T13:12:19.637Z,20
2015-03-22T13:12:32.762Z,20
2015-03-22T13:12:45.715Z,20
2015-03-22T13:12:58.559Z,20
2015-03-22T13:13:11.687Z,20
2015-03-22T13:13:24.687Z,20
2015-03-22T13:13:37.578Z,20
2015-03-22T13:13:50.656Z,20
2015-03-22T13:14:03.749Z,20
2015-03-22T13:14:16.626Z,20
2015-03-22T13:14:29.673Z,20
2015-03-22T13:14:42.595Z,20
2015-03-22T13:14:55.736Z,20
2015-03-22T13:15:08.798Z,20
2015-03-22T13:15:21.644Z,20
2015-03-22T13:15:34.738Z,20
2015-03-22T13:15:47.800Z,20
2015-03-22T13:16:00.660Z,20
2015-03-22T13:16:13.663Z,20
2015-03-22T13:16:26.772Z,20
2015-03-22T13:16:39.585Z,20
2015-03-22T13:16:52.538Z,20
2015-03-22T13:17:05.631Z,20
2015-03-22T13:17:18.524Z,20
2015-03-22T13:17:31.587Z,20
2015-03-22T13:17:44.446Z,20
2015-03-22T13:17:57.399Z,20
2015-03-22T13:18:10.542Z,20
2015-03-22T13:18:23.432Z,20
2015-03-22T13:18:36.401Z,20
2015-03-22T13:18:49.557Z,20
2015-03-22T13:19:02.510Z,20
2015-03-22T13:19:15.466Z,21
2015-03-22T13:19:28.606Z,21
2015-03-22T13:19:41.606Z,21
2015-03-22T13:19:54.559Z,21
2015-03-22T13:20:07.684Z,21
2015-03-22T13:20:20.702Z,21
2015-03-22T13:20:33.874Z,21
2015-03-22T13:20:46.796Z,21
2015-03-22T13:20:59.749Z,21
2015-03-22T13:21:12.877Z,21
2015-03-22T13:21:25.877Z,21
2015-03-22T13:21:38.752Z,21
2015-03-22T13:21:51.877Z,21
2015-03-22T13:22:04.892Z,21
2015-03-22T13:22:17.769Z,21
2015-03-22T13:22:30.910Z,21
2015-03-22T13:22:44.004Z,21
2015-03-22T13:22:56.863Z,21
2015-03-22T13:23:09.879Z,21
2015-03-22T13:23:23.022Z,21
2015-03-22T13:23:35.913Z,21
2015-03-22T13:23:48.897Z,21
2015-03-22T13:24:02.038Z,21
2015-03-22T13:24:14.978Z,21
2015-03-22T13:24:27.884Z,21
2015-03-22T13:24:40.993Z,21
2015-03-22T13:24:53.931Z,21
2015-03-22T13:25:06.806Z,21
2015-03-22T13:25:19.902Z,21
2015-03-22T13:25:32.887Z,21
2015-03-22T13:25:45.918Z,21
2015-03-22T13:25:58.840Z,21
2015-03-22T13:26:11.762Z,21
2015-03-22T13:26:24.889Z,21
2015-03-22T13:26:37.842Z,21
2015-03-22T13:26:50.701Z,21
2015-03-22T13:27:03.842Z,21
2015-03-22T13:27:16.906Z,21
2015-03-22T13:27:29.781Z,21
2015-03-22T13:27:42.860Z,21
2015-03-22T13:27:55.922Z,21
2015-03-22T13:28:08.813Z,21
2015-03-22T13:28:21.830Z,21
2015-03-22T13:28:34.737Z,21
2015-03-22T13:28:47.862Z,21
2015-03-22T13:29:00.893Z,21
2015-03-22T13:29:13.785Z,21
2015-03-22T13:29:26.864Z,21
2015-03-22T13:29:39.942Z,21
2015-03-22T13:29:52.801Z,21
2015-03-22T13:30:05.817Z,21
2015-03-22T13:30:18.960Z,21
2015-03-22T13:30:31.820Z,21
2015-03-22T13:30:44.835Z,21
2015-03-22T13:30:57.976Z,21
2015-03-22T13:31:10.913Z,21
2015-03-22T13:31:24.040Z,21
2015-03-22T13:31:36.931Z,21
2015-03-22T13:31:57.134Z,21
2015-03-22T13:32:10.275Z,21
2015-03-22T13:32:23.167Z,21
2015-03-22T13:32:36.152Z,21
2015-03-22T13:32:49.277Z,21
2015-03-22T13:33:02.199Z,20
2015-03-22T13:33:15.092Z,20
2015-03-22T13:33:28.264Z,20
2015-03-22T13:33:41.202Z,20
2015-03-22T13:33:54.061Z,20
2015-03-22T13:34:07.170Z,20
2015-03-22T13:34:27.360Z,20
2015-03-22T13:34:40.235Z,20
2015-03-22T13:34:53.313Z,20
2015-03-22T13:35:06.391Z,20
2015-03-22T13:35:19.237Z,20
2015-03-22T13:35:32.253Z,19
2015-03-22T13:35:45.362Z,19
2015-03-22T13:35:58.237Z,19
2015-03-22T13:36:11.221Z,19
2015-03-22T13:36:24.443Z,19
2015-03-22T13:36:37.396Z,19
2015-03-22T13:36:50.318Z,18
2015-03-22T13:37:03.474Z,18
2015-03-22T13:37:16.492Z,18
2015-03-22T13:37:29.633Z,18
2015-03-22T13:37:42.476Z,17
2015-03-22T13:37:55.414Z,17
2015-03-22T13:38:08.523Z,17
2015-03-22T13:38:21.994Z,17
2015-03-22T13:38:35.541Z,17
2015-03-22T13:38:48.713Z,16
2015-03-22T13:39:01.681Z,16
2015-03-22T13:39:14.525Z,16
2015-03-22T13:39:27.622Z,16
2015-03-22T13:39:40.653Z,16
2015-03-22T13:39:53.669Z,16
2015-03-22T13:40:06.575Z,15
2015-03-22T13:40:19.452Z,15
2015-03-22T13:40:32.593Z,15
2015-03-22T13:40:45.577Z,15
2015-03-22T13:40:58.421Z,15
2015-03-22T13:41:11.608Z,15
2015-03-22T13:41:24.673Z,15
2015-03-22T13:41:37.563Z,15
2015-03-22T13:41:50.657Z,15
2015-03-22T13:42:03.688Z,15
2015-03-22T13:42:16.535Z,15
2015-03-22T13:42:29.535Z,15
2015-03-22T13:42:42.488Z,15
2015-03-22T13:42:55.629Z,15
2015-03-22T13:43:08.645Z,15
2015-03-22T13:43:28.662Z,14
2015-03-22T13:43:41.740Z,14
2015-03-22T13:43:54.850Z,14
2015-03-22T13:44:07.709Z,14
2015-03-22T13:44:20.727Z,14
2015-03-22T13:44:33.867Z,14
2015-03-22T13:44:46.758Z,14
2015-03-22T13:44:59.727Z,14
2015-03-22T13:45:12.852Z,14
2015-03-22T13:45:25.761Z,14
2015-03-22T13:45:38.886Z,14
2015-03-22T13:45:51.792Z,14
2015-03-22T13:46:04.839Z,14
2015-03-22T13:46:17.964Z,14
2015-03-22T13:46:30.872Z,14
2015-03-22T13:46:43.857Z,14
2015-03-22T13:46:56.997Z,14
2015-03-22T13:47:09.919Z,14
2015-03-22T13:47:22.827Z,14
2015-03-22T13:47:35.952Z,14
2015-03-22T13:47:48.999Z,14
2015-03-22T13:48:01.859Z,14
2015-03-22T13:48:14.937Z,14
2015-03-22T13:48:27.892Z,14
2015-03-22T13:48:41.048Z,14
2015-03-22T13:48:53.939Z,14
2015-03-22T13:49:06.861Z,14
2015-03-22T13:49:20.019Z,14
2015-03-22T13:49:33.003Z,14
2015-03-22T13:49:45.863Z,14
2015-03-22T13:49:58.988Z,14
2015-03-22T13:50:12.003Z,14